createdAt,value
2022-09-27T00:00:12.349Z,992.43
2022-09-27T00:01:12.385Z,992.42
2022-09-27T00:02:12.406Z,992.40
2022-09-27T00:03:12.405Z,992.38
2022-09-27T00:04:12.296Z,992.34
2022-09-27T00:05:12.373Z,992.33
2022-09-27T00:06:12.306Z,992.37
2022-09-27T00:07:12.318Z,992.33
2022-09-27T00:08:12.270Z,992.29
2022-09-27T00:09:12.243Z,992.28
2022-09-27T00:10:12.289Z,992.28
2022-09-27T00:11:12.304Z,992.27
2022-09-27T00:12:12.267Z,992.25
2022-09-27T00:13:12.371Z,992.23
2022-09-27T00:14:12.210Z,992.21
2022-09-27T00:15:12.209Z,992.18
2022-09-27T00:16:12.341Z,992.16
2022-09-27T00:17:12.184Z,992.13
2022-09-27T00:18:12.163Z,992.11
2022-09-27T00:19:12.147Z,992.04
2022-09-27T00:20:12.216Z,992.05
2022-09-27T00:21:12.151Z,992.02
2022-09-27T00:22:12.111Z,992.02
2022-09-27T00:23:12.111Z,992.03
2022-09-27T00:24:12.098Z,992.01
2022-09-27T00:25:12.176Z,992.00
2022-09-27T00:26:12.153Z,991.99
2022-09-27T00:27:12.098Z,991.98
2022-09-27T00:28:12.125Z,991.99
2022-09-27T00:29:12.069Z,992.00
2022-09-27T00:30:12.036Z,992.01
2022-09-27T00:31:12.675Z,992.01
2022-09-27T00:32:12.020Z,992.01
2022-09-27T00:33:12.150Z,992.01
2022-09-27T00:34:12.001Z,991.99
2022-09-27T00:35:12.096Z,991.98
2022-09-27T00:36:12.002Z,991.97
2022-09-27T00:37:11.957Z,991.97
2022-09-27T00:38:12.007Z,991.98
2022-09-27T00:39:12.086Z,991.99
2022-09-27T00:40:15.004Z,991.97
2022-09-27T00:41:12.120Z,991.97
2022-09-27T00:42:12.017Z,991.96
2022-09-27T00:43:12.042Z,991.93
2022-09-27T00:44:11.947Z,991.92
2022-09-27T00:45:11.863Z,991.90
2022-09-27T00:46:12.085Z,991.88
2022-09-27T00:47:11.862Z,991.82
2022-09-27T00:48:11.940Z,991.81
2022-09-27T00:49:11.909Z,991.78
2022-09-27T00:50:11.907Z,991.80
2022-09-27T00:51:11.863Z,991.80
2022-09-27T00:52:11.866Z,991.78
2022-09-27T00:53:11.818Z,991.77
2022-09-27T00:54:11.781Z,991.78
2022-09-27T00:55:11.758Z,991.75
2022-09-27T00:56:11.768Z,991.75
2022-09-27T00:57:11.742Z,991.75
2022-09-27T00:58:11.733Z,991.71
2022-09-27T00:59:11.733Z,991.70
2022-09-27T01:00:11.775Z,991.67
2022-09-27T01:01:11.733Z,991.64
2022-09-27T01:02:11.724Z,991.64
2022-09-27T01:03:11.700Z,991.62
2022-09-27T01:04:11.685Z,991.62
2022-09-27T01:05:11.675Z,991.59
2022-09-27T01:06:11.694Z,991.57
2022-09-27T01:07:11.656Z,991.57
2022-09-27T01:08:11.624Z,991.55
2022-09-27T01:09:11.671Z,991.54
2022-09-27T01:10:11.685Z,991.53
2022-09-27T01:11:11.603Z,991.52
2022-09-27T01:12:11.635Z,991.49
2022-09-27T01:13:11.612Z,991.48
2022-09-27T01:14:11.568Z,991.47
2022-09-27T01:15:11.574Z,991.47
2022-09-27T01:16:11.673Z,991.43
2022-09-27T01:17:11.534Z,991.43
2022-09-27T01:18:11.569Z,991.42
2022-09-27T01:19:11.535Z,991.40
2022-09-27T01:20:11.515Z,991.39
2022-09-27T01:21:11.503Z,991.37
2022-09-27T01:22:11.485Z,991.38
2022-09-27T01:23:11.503Z,991.38
2022-09-27T01:24:11.461Z,991.37
2022-09-27T01:25:11.545Z,991.34
2022-09-27T01:26:11.446Z,991.31
2022-09-27T01:27:12.168Z,991.30
2022-09-27T01:28:11.436Z,991.32
2022-09-27T01:29:11.498Z,991.27
2022-09-27T01:30:11.429Z,991.27
2022-09-27T01:31:11.536Z,991.26
2022-09-27T01:32:11.380Z,991.25
2022-09-27T01:33:11.366Z,991.25
2022-09-27T01:34:11.372Z,991.23
2022-09-27T01:35:11.372Z,991.24
2022-09-27T01:36:11.347Z,991.26
2022-09-27T01:37:11.355Z,991.24
2022-09-27T01:38:11.352Z,991.25
2022-09-27T01:39:11.407Z,991.23
2022-09-27T01:40:11.332Z,991.23
2022-09-27T01:41:11.329Z,991.21
2022-09-27T01:42:12.998Z,991.20
2022-09-27T01:43:11.263Z,991.20
2022-09-27T01:44:11.348Z,991.16
2022-09-27T01:45:11.307Z,991.17
2022-09-27T01:46:11.305Z,991.15
2022-09-27T01:47:11.231Z,991.14
2022-09-27T01:48:11.209Z,991.12
2022-09-27T01:49:11.230Z,991.11
2022-09-27T01:50:11.302Z,991.11
2022-09-27T01:51:11.181Z,991.10
2022-09-27T01:52:11.176Z,991.08
2022-09-27T01:53:11.178Z,991.07
2022-09-27T01:54:11.150Z,991.08
2022-09-27T01:55:17.172Z,991.06
2022-09-27T01:56:11.126Z,991.04
2022-09-27T01:57:12.738Z,991.01
2022-09-27T01:58:11.102Z,991.01
2022-09-27T01:59:11.186Z,990.96
2022-09-27T02:00:11.139Z,990.97
2022-09-27T02:01:11.111Z,990.94
2022-09-27T02:02:11.119Z,990.92
2022-09-27T02:03:11.065Z,990.89
2022-09-27T02:04:11.050Z,990.91
2022-09-27T02:05:11.051Z,990.87
2022-09-27T02:06:12.870Z,990.85
2022-09-27T02:07:11.016Z,990.86
2022-09-27T02:08:11.006Z,990.82
2022-09-27T02:09:11.011Z,990.80
2022-09-27T02:10:10.988Z,990.79
2022-09-27T02:11:10.976Z,990.78
2022-09-27T02:12:10.967Z,990.75
2022-09-27T02:13:10.955Z,990.71
2022-09-27T02:14:10.964Z,990.71
2022-09-27T02:15:10.986Z,990.71
2022-09-27T02:16:10.964Z,990.70
2022-09-27T02:17:10.912Z,990.68
2022-09-27T02:18:10.914Z,990.66
2022-09-27T02:19:11.000Z,990.64
2022-09-27T02:20:10.924Z,990.63
2022-09-27T02:21:10.913Z,990.60
2022-09-27T02:22:10.852Z,990.60
2022-09-27T02:23:10.851Z,990.56
2022-09-27T02:24:10.924Z,990.57
2022-09-27T02:25:10.838Z,990.55
2022-09-27T02:26:10.844Z,990.55
2022-09-27T02:27:10.805Z,990.53
2022-09-27T02:28:10.789Z,990.50
2022-09-27T02:29:10.831Z,990.49
2022-09-27T02:30:10.768Z,990.48
2022-09-27T02:31:10.862Z,990.46
2022-09-27T02:32:10.746Z,990.44
2022-09-27T02:33:10.738Z,990.42
2022-09-27T02:34:10.741Z,990.40
2022-09-27T02:35:10.723Z,990.40
2022-09-27T02:36:10.710Z,990.39
2022-09-27T02:37:10.699Z,990.39
2022-09-27T02:38:10.689Z,990.37
2022-09-27T02:39:10.730Z,990.37
2022-09-27T02:40:10.724Z,990.37
2022-09-27T02:41:10.672Z,990.34
2022-09-27T02:42:10.648Z,990.34
2022-09-27T02:43:10.639Z,990.32
2022-09-27T02:44:10.628Z,990.32
2022-09-27T02:45:10.630Z,990.31
2022-09-27T02:46:10.666Z,990.30
2022-09-27T02:47:10.594Z,990.29
2022-09-27T02:48:10.583Z,990.29
2022-09-27T02:49:10.659Z,990.27
2022-09-27T02:50:10.587Z,990.26
2022-09-27T02:51:10.556Z,990.27
2022-09-27T02:52:10.539Z,990.24
2022-09-27T02:53:10.539Z,990.25
2022-09-27T02:54:10.527Z,990.25
2022-09-27T02:55:10.532Z,990.24
2022-09-27T02:56:10.496Z,990.25
2022-09-27T02:57:10.509Z,990.24
2022-09-27T02:58:10.479Z,990.23
2022-09-27T02:59:10.533Z,990.19
2022-09-27T03:00:10.478Z,990.19
2022-09-27T03:01:10.519Z,990.17
2022-09-27T03:02:13.583Z,990.17
2022-09-27T03:03:10.510Z,990.16
2022-09-27T03:04:10.411Z,990.15
2022-09-27T03:05:10.432Z,990.15
2022-09-27T03:06:10.391Z,990.16
2022-09-27T03:07:10.394Z,990.14
2022-09-27T03:08:10.382Z,990.12
2022-09-27T03:09:10.436Z,990.12
2022-09-27T03:10:10.372Z,990.11
2022-09-27T03:11:10.344Z,990.09
2022-09-27T03:12:10.333Z,990.13
2022-09-27T03:13:10.352Z,990.15
2022-09-27T03:14:10.310Z,990.15
2022-09-27T03:15:10.323Z,990.15
2022-09-27T03:16:10.290Z,990.13
2022-09-27T03:17:10.337Z,990.10
2022-09-27T03:18:10.269Z,990.10
2022-09-27T03:19:10.307Z,990.06
2022-09-27T03:20:10.256Z,990.06
2022-09-27T03:21:10.249Z,990.04
2022-09-27T03:22:10.224Z,990.04
2022-09-27T03:23:10.218Z,990.02
2022-09-27T03:24:10.206Z,990.02
2022-09-27T03:25:10.221Z,990.02
2022-09-27T03:26:13.042Z,990.02
2022-09-27T03:27:10.182Z,990.01
2022-09-27T03:28:10.169Z,990.00
2022-09-27T03:29:10.216Z,989.98
2022-09-27T03:30:10.153Z,989.99
2022-09-27T03:31:10.326Z,989.96
2022-09-27T03:32:10.126Z,989.94
2022-09-27T03:33:10.115Z,989.93
2022-09-27T03:34:10.103Z,989.94
2022-09-27T03:35:10.109Z,989.92
2022-09-27T03:36:10.094Z,989.89
2022-09-27T03:37:10.072Z,989.90
2022-09-27T03:38:10.060Z,989.86
2022-09-27T03:39:10.189Z,989.85
2022-09-27T03:40:10.055Z,989.83
2022-09-27T03:41:10.032Z,989.83
2022-09-27T03:42:10.018Z,989.84
2022-09-27T03:43:10.020Z,989.81
2022-09-27T03:44:09.998Z,989.82
2022-09-27T03:45:10.004Z,989.79
2022-09-27T03:46:10.024Z,989.81
2022-09-27T03:47:09.969Z,989.83
2022-09-27T03:48:09.975Z,989.80
2022-09-27T03:49:09.984Z,989.82
2022-09-27T03:50:09.937Z,989.80
2022-09-27T03:51:09.927Z,989.82
2022-09-27T03:52:09.936Z,989.80
2022-09-27T03:53:09.917Z,989.85
2022-09-27T03:54:09.905Z,989.81
2022-09-27T03:55:09.934Z,989.84
2022-09-27T03:56:09.897Z,989.81
2022-09-27T03:57:09.894Z,989.80
2022-09-27T03:58:09.854Z,989.80
2022-09-27T03:59:09.965Z,989.79
2022-09-27T04:00:09.878Z,989.78
2022-09-27T04:01:09.881Z,989.77
2022-09-27T04:02:09.858Z,989.74
2022-09-27T04:03:09.806Z,989.74
2022-09-27T04:04:11.315Z,989.74
2022-09-27T04:05:09.807Z,989.72
2022-09-27T04:06:09.767Z,989.70
2022-09-27T04:07:09.762Z,989.69
2022-09-27T04:08:09.755Z,989.67
2022-09-27T04:09:09.861Z,989.67
2022-09-27T04:10:09.739Z,989.65
2022-09-27T04:11:09.723Z,989.67
2022-09-27T04:12:09.705Z,989.65
2022-09-27T04:13:09.700Z,989.65
2022-09-27T04:14:09.694Z,989.66
2022-09-27T04:15:09.727Z,989.66
2022-09-27T04:16:09.675Z,989.66
2022-09-27T04:17:09.702Z,989.63
2022-09-27T04:18:09.650Z,989.65
2022-09-27T04:19:09.656Z,989.66
2022-09-27T04:20:09.653Z,989.64
2022-09-27T04:21:09.620Z,989.61
2022-09-27T04:22:09.611Z,989.61
2022-09-27T04:23:09.604Z,989.62
2022-09-27T04:24:09.626Z,989.62
2022-09-27T04:25:09.591Z,989.61
2022-09-27T04:26:09.559Z,989.59
2022-09-27T04:27:09.552Z,989.59
2022-09-27T04:28:09.608Z,989.57
2022-09-27T04:29:09.557Z,989.57
2022-09-27T04:30:09.517Z,989.58
2022-09-27T04:31:09.584Z,989.60
2022-09-27T04:32:09.499Z,989.59
2022-09-27T04:33:09.495Z,989.59
2022-09-27T04:34:09.541Z,989.60
2022-09-27T04:35:09.474Z,989.59
2022-09-27T04:36:09.452Z,989.58
2022-09-27T04:37:09.454Z,989.58
2022-09-27T04:38:09.419Z,989.60
2022-09-27T04:39:09.404Z,989.59
2022-09-27T04:40:09.419Z,989.60
2022-09-27T04:41:09.362Z,989.59
2022-09-27T04:42:09.415Z,989.60
2022-09-27T04:43:09.398Z,989.60
2022-09-27T04:44:09.387Z,989.59
2022-09-27T04:45:09.339Z,989.60
2022-09-27T04:46:09.371Z,989.59
2022-09-27T04:47:09.293Z,989.60
2022-09-27T04:48:09.273Z,989.60
2022-09-27T04:49:09.349Z,989.60
2022-09-27T04:50:09.254Z,989.62
2022-09-27T04:51:09.247Z,989.63
2022-09-27T04:52:09.239Z,989.62
2022-09-27T04:53:09.229Z,989.61
2022-09-27T04:54:09.263Z,989.60
2022-09-27T04:55:09.211Z,989.59
2022-09-27T04:56:09.193Z,989.58
2022-09-27T04:57:09.184Z,989.59
2022-09-27T04:58:09.174Z,989.59
2022-09-27T04:59:09.891Z,989.60
2022-09-27T05:00:09.197Z,989.59
2022-09-27T05:01:09.195Z,989.60
2022-09-27T05:02:09.158Z,989.61
2022-09-27T05:03:09.124Z,989.60
2022-09-27T05:04:09.206Z,989.60
2022-09-27T05:05:09.143Z,989.61
2022-09-27T05:06:09.092Z,989.59
2022-09-27T05:07:09.152Z,989.60
2022-09-27T05:08:09.068Z,989.59
2022-09-27T05:09:09.138Z,989.58
2022-09-27T05:10:09.049Z,989.59
2022-09-27T05:11:09.051Z,989.59
2022-09-27T05:12:09.023Z,989.58
2022-09-27T05:13:09.020Z,989.58
2022-09-27T05:14:09.013Z,989.59
2022-09-27T05:15:08.997Z,989.58
2022-09-27T05:16:08.997Z,989.58
2022-09-27T05:17:09.013Z,989.60
2022-09-27T05:18:08.969Z,989.60
2022-09-27T05:19:09.060Z,989.58
2022-09-27T05:20:09.012Z,989.59
2022-09-27T05:21:08.943Z,989.59
2022-09-27T05:22:08.967Z,989.60
2022-09-27T05:23:08.944Z,989.58
2022-09-27T05:24:08.924Z,989.57
2022-09-27T05:25:08.888Z,989.56
2022-09-27T05:26:08.890Z,989.58
2022-09-27T05:27:08.865Z,989.59
2022-09-27T05:28:08.981Z,989.60
2022-09-27T05:29:09.035Z,989.62
2022-09-27T05:30:08.842Z,989.62
2022-09-27T05:31:08.980Z,989.63
2022-09-27T05:32:08.823Z,989.61
2022-09-27T05:33:08.822Z,989.62
2022-09-27T05:34:09.004Z,989.65
2022-09-27T05:35:08.786Z,989.64
2022-09-27T05:36:08.782Z,989.64
2022-09-27T05:37:08.773Z,989.63
2022-09-27T05:38:08.756Z,989.65
2022-09-27T05:39:08.809Z,989.65
2022-09-27T05:40:29.340Z,989.67
2022-09-27T05:41:08.794Z,989.66
2022-09-27T05:42:08.782Z,989.68
2022-09-27T05:43:08.756Z,989.67
2022-09-27T05:44:08.740Z,989.67
2022-09-27T05:45:08.679Z,989.70
2022-09-27T05:46:08.749Z,989.66
2022-09-27T05:47:08.668Z,989.67
2022-09-27T05:48:08.655Z,989.66
2022-09-27T05:49:08.650Z,989.67
2022-09-27T05:50:08.633Z,989.65
2022-09-27T05:51:08.691Z,989.68
2022-09-27T05:52:12.038Z,989.65
2022-09-27T05:53:08.611Z,989.65
2022-09-27T05:54:08.660Z,989.65
2022-09-27T05:55:08.599Z,989.65
2022-09-27T05:56:08.599Z,989.66
2022-09-27T05:57:08.579Z,989.65
2022-09-27T05:58:08.560Z,989.65
2022-09-27T05:59:08.549Z,989.65
2022-09-27T06:00:08.529Z,989.63
2022-09-27T06:01:08.526Z,989.66
2022-09-27T06:02:08.671Z,989.63
2022-09-27T06:03:08.531Z,989.63
2022-09-27T06:04:08.509Z,989.62
2022-09-27T06:05:08.480Z,989.61
2022-09-27T06:06:08.468Z,989.63
2022-09-27T06:07:08.458Z,989.64
2022-09-27T06:08:08.446Z,989.63
2022-09-27T06:09:08.430Z,989.61
2022-09-27T06:10:08.449Z,989.63
2022-09-27T06:11:08.407Z,989.63
2022-09-27T06:12:08.404Z,989.61
2022-09-27T06:13:08.394Z,989.60
2022-09-27T06:14:08.391Z,989.61
2022-09-27T06:15:08.380Z,989.61
2022-09-27T06:16:08.363Z,989.60
2022-09-27T06:17:08.355Z,989.60
2022-09-27T06:18:08.341Z,989.58
2022-09-27T06:19:08.398Z,989.58
2022-09-27T06:20:08.317Z,989.56
2022-09-27T06:21:08.303Z,989.55
2022-09-27T06:22:08.301Z,989.56
2022-09-27T06:23:08.287Z,989.57
2022-09-27T06:24:08.290Z,989.55
2022-09-27T06:25:08.266Z,989.56
2022-09-27T06:26:08.266Z,989.57
2022-09-27T06:27:08.249Z,989.57
2022-09-27T06:28:08.237Z,989.56
2022-09-27T06:29:08.234Z,989.58
2022-09-27T06:30:08.408Z,989.57
2022-09-27T06:31:08.364Z,989.58
2022-09-27T06:32:08.195Z,989.58
2022-09-27T06:33:08.178Z,989.57
2022-09-27T06:34:08.195Z,989.59
2022-09-27T06:35:08.158Z,989.58
2022-09-27T06:36:08.227Z,989.54
2022-09-27T06:37:08.142Z,989.57
2022-09-27T06:38:08.132Z,989.57
2022-09-27T06:39:08.133Z,989.58
2022-09-27T06:40:08.120Z,989.57
2022-09-27T06:41:08.103Z,989.59
2022-09-27T06:42:08.092Z,989.58
2022-09-27T06:43:08.079Z,989.58
2022-09-27T06:44:08.079Z,989.57
2022-09-27T06:45:08.056Z,989.56
2022-09-27T06:46:08.107Z,989.59
2022-09-27T06:47:08.036Z,989.59
2022-09-27T06:48:08.040Z,989.60
2022-09-27T06:49:08.066Z,989.59
2022-09-27T06:50:08.027Z,989.61
2022-09-27T06:51:08.025Z,989.60
2022-09-27T06:52:07.989Z,989.60
2022-09-27T06:53:07.973Z,989.60
2022-09-27T06:54:07.989Z,989.61
2022-09-27T06:55:07.955Z,989.59
2022-09-27T06:56:07.947Z,989.59
2022-09-27T06:57:07.938Z,989.59
2022-09-27T06:58:07.921Z,989.60
2022-09-27T06:59:07.924Z,989.60
2022-09-27T07:00:07.913Z,989.59
2022-09-27T07:01:07.946Z,989.61
2022-09-27T07:02:07.975Z,989.64
2022-09-27T07:03:07.872Z,989.63
2022-09-27T07:04:07.897Z,989.62
2022-09-27T07:05:07.870Z,989.61
2022-09-27T07:06:07.851Z,989.61
2022-09-27T07:07:07.829Z,989.62
2022-09-27T07:08:07.818Z,989.63
2022-09-27T07:09:07.823Z,989.65
2022-09-27T07:10:09.981Z,989.67
2022-09-27T07:11:07.788Z,989.66
2022-09-27T07:12:07.792Z,989.63
2022-09-27T07:13:07.781Z,989.66
2022-09-27T07:14:07.775Z,989.65
2022-09-27T07:15:07.777Z,989.66
2022-09-27T07:16:07.797Z,989.65
2022-09-27T07:17:07.731Z,989.65
2022-09-27T07:18:07.732Z,989.64
2022-09-27T07:19:07.724Z,989.65
2022-09-27T07:20:07.697Z,989.66
2022-09-27T07:21:07.705Z,989.67
2022-09-27T07:22:07.678Z,989.66
2022-09-27T07:23:07.661Z,989.65
2022-09-27T07:24:07.669Z,989.66
2022-09-27T07:25:07.644Z,989.65
2022-09-27T07:26:07.633Z,989.68
2022-09-27T07:27:07.616Z,989.68
2022-09-27T07:28:07.613Z,989.69
2022-09-27T07:29:07.641Z,989.70
2022-09-27T07:30:07.587Z,989.70
2022-09-27T07:31:07.611Z,989.73
2022-09-27T07:32:07.565Z,989.70
2022-09-27T07:33:07.555Z,989.69
2022-09-27T07:34:07.561Z,989.68
2022-09-27T07:35:07.532Z,989.68
2022-09-27T07:36:07.525Z,989.68
2022-09-27T07:37:07.514Z,989.68
2022-09-27T07:38:07.507Z,989.67
2022-09-27T07:39:07.502Z,989.67
2022-09-27T07:40:07.483Z,989.67
2022-09-27T07:41:07.504Z,989.69
2022-09-27T07:42:07.466Z,989.71
2022-09-27T07:43:07.457Z,989.69
2022-09-27T07:44:07.601Z,989.66
2022-09-27T07:45:09.291Z,989.66
2022-09-27T07:46:07.468Z,989.64
2022-09-27T07:47:07.412Z,989.65
2022-09-27T07:48:07.408Z,989.63
2022-09-27T07:49:07.397Z,989.61
2022-09-27T07:50:07.380Z,989.65
2022-09-27T07:51:07.368Z,989.66
2022-09-27T07:52:07.369Z,989.65
2022-09-27T07:53:07.347Z,989.65
2022-09-27T07:54:08.870Z,989.65
2022-09-27T07:55:07.329Z,989.63
2022-09-27T07:56:13.321Z,989.64
2022-09-27T07:57:09.929Z,989.65
2022-09-27T07:58:07.322Z,989.64
2022-09-27T07:59:07.295Z,989.64
2022-09-27T08:00:07.286Z,989.62
2022-09-27T08:01:07.426Z,989.64
2022-09-27T08:02:07.327Z,989.65
2022-09-27T08:03:07.240Z,989.66
2022-09-27T08:04:07.245Z,989.67
2022-09-27T08:05:07.362Z,989.67
2022-09-27T08:06:07.213Z,989.66
2022-09-27T08:07:08.604Z,989.69
2022-09-27T08:08:07.192Z,989.67
2022-09-27T08:09:07.214Z,989.68
2022-09-27T08:10:07.183Z,989.68
2022-09-27T08:11:07.157Z,989.68
2022-09-27T08:12:07.157Z,989.73
2022-09-27T08:13:07.147Z,989.73
2022-09-27T08:14:07.136Z,989.74
2022-09-27T08:15:07.114Z,989.76
2022-09-27T08:16:07.153Z,989.75
2022-09-27T08:17:07.108Z,989.74
2022-09-27T08:18:07.106Z,989.75
2022-09-27T08:19:07.132Z,989.74
2022-09-27T08:20:07.110Z,989.71
2022-09-27T08:21:07.069Z,989.71
2022-09-27T08:22:07.067Z,989.71
2022-09-27T08:23:07.069Z,989.72
2022-09-27T08:24:07.024Z,989.74
2022-09-27T08:25:07.010Z,989.71
2022-09-27T08:26:07.025Z,989.69
2022-09-27T08:27:11.371Z,989.68
2022-09-27T08:28:07.004Z,989.69
2022-09-27T08:29:06.987Z,989.68
2022-09-27T08:30:06.962Z,989.70
2022-09-27T08:31:06.951Z,989.68
2022-09-27T08:32:06.963Z,989.66
2022-09-27T08:33:06.935Z,989.68
2022-09-27T08:34:06.934Z,989.69
2022-09-27T08:35:06.922Z,989.69
2022-09-27T08:36:06.903Z,989.71
2022-09-27T08:37:06.895Z,989.69
2022-09-27T08:38:06.885Z,989.70
2022-09-27T08:39:06.869Z,989.74
2022-09-27T08:40:06.858Z,989.75
2022-09-27T08:41:06.843Z,989.79
2022-09-27T08:42:06.843Z,989.79
2022-09-27T08:43:06.835Z,989.81
2022-09-27T08:44:06.815Z,989.79
2022-09-27T08:45:06.815Z,989.80
2022-09-27T08:46:06.849Z,989.78
2022-09-27T08:47:06.798Z,989.77
2022-09-27T08:48:06.782Z,989.76
2022-09-27T08:49:06.764Z,989.77
2022-09-27T08:50:06.753Z,989.79
2022-09-27T08:51:06.739Z,989.78
2022-09-27T08:52:06.757Z,989.80
2022-09-27T08:53:06.728Z,989.83
2022-09-27T08:54:06.715Z,989.83
2022-09-27T08:55:06.710Z,989.84
2022-09-27T08:56:06.695Z,989.85
2022-09-27T08:57:06.686Z,989.85
2022-09-27T08:58:06.683Z,989.85
2022-09-27T08:59:06.657Z,989.85
2022-09-27T09:00:07.252Z,989.86
2022-09-27T09:01:06.721Z,989.87
2022-09-27T09:02:06.714Z,989.86
2022-09-27T09:03:06.623Z,989.86
2022-09-27T09:04:06.612Z,989.86
2022-09-27T09:05:06.627Z,989.85
2022-09-27T09:06:06.594Z,989.84
2022-09-27T09:07:06.578Z,989.83
2022-09-27T09:08:06.588Z,989.83
2022-09-27T09:09:06.554Z,989.84
2022-09-27T09:10:06.548Z,989.85
2022-09-27T09:11:06.531Z,989.84
2022-09-27T09:12:06.525Z,989.85
2022-09-27T09:13:06.530Z,989.83
2022-09-27T09:14:09.219Z,989.82
2022-09-27T09:15:06.558Z,989.80
2022-09-27T09:16:06.535Z,989.79
2022-09-27T09:17:06.467Z,989.77
2022-09-27T09:18:06.488Z,989.76
2022-09-27T09:19:06.470Z,989.75
2022-09-27T09:20:06.447Z,989.74
2022-09-27T09:21:06.430Z,989.75
2022-09-27T09:22:06.426Z,989.74
2022-09-27T09:23:06.435Z,989.72
2022-09-27T09:24:06.411Z,989.73
2022-09-27T09:25:06.421Z,989.71
2022-09-27T09:26:06.382Z,989.73
2022-09-27T09:27:06.376Z,989.71
2022-09-27T09:28:06.926Z,989.73
2022-09-27T09:29:06.357Z,989.72
2022-09-27T09:30:06.337Z,989.72
2022-09-27T09:31:06.332Z,989.72
2022-09-27T09:32:06.397Z,989.74
2022-09-27T09:33:06.314Z,989.73
2022-09-27T09:34:06.314Z,989.73
2022-09-27T09:35:06.278Z,989.73
2022-09-27T09:36:06.326Z,989.72
2022-09-27T09:37:06.268Z,989.74
2022-09-27T09:38:06.263Z,989.73
2022-09-27T09:39:06.247Z,989.72
2022-09-27T09:40:09.035Z,989.73
2022-09-27T09:41:06.220Z,989.73
2022-09-27T09:42:06.221Z,989.72
2022-09-27T09:43:06.227Z,989.72
2022-09-27T09:44:06.186Z,989.72
2022-09-27T09:45:06.181Z,989.75
2022-09-27T09:46:06.200Z,989.72
2022-09-27T09:47:06.209Z,989.72
2022-09-27T09:48:06.175Z,989.72
2022-09-27T09:49:06.142Z,989.72
2022-09-27T09:50:06.128Z,989.72
2022-09-27T09:51:06.123Z,989.72
2022-09-27T09:52:08.961Z,989.72
2022-09-27T09:53:06.104Z,989.72
2022-09-27T09:54:06.097Z,989.70
2022-09-27T09:55:06.077Z,989.70
2022-09-27T09:56:06.128Z,989.67
2022-09-27T09:57:06.060Z,989.66
2022-09-27T09:58:06.085Z,989.66
2022-09-27T09:59:06.036Z,989.64
2022-09-27T10:00:06.027Z,989.65
2022-09-27T10:01:06.092Z,989.63
2022-09-27T10:02:06.036Z,989.63
2022-09-27T10:03:06.006Z,989.62
2022-09-27T10:04:05.980Z,989.60
2022-09-27T10:05:08.055Z,989.59
2022-09-27T10:06:05.961Z,989.58
2022-09-27T10:07:05.953Z,989.59
2022-09-27T10:08:05.947Z,989.58
2022-09-27T10:09:05.930Z,989.58
2022-09-27T10:10:05.917Z,989.58
2022-09-27T10:11:05.918Z,989.56
2022-09-27T10:12:05.908Z,989.53
2022-09-27T10:13:05.908Z,989.54
2022-09-27T10:14:05.889Z,989.55
2022-09-27T10:15:05.879Z,989.54
2022-09-27T10:16:05.924Z,989.53
2022-09-27T10:17:05.858Z,989.54
2022-09-27T10:18:05.862Z,989.53
2022-09-27T10:19:05.842Z,989.54
2022-09-27T10:20:05.815Z,989.56
2022-09-27T10:21:05.837Z,989.55
2022-09-27T10:22:05.806Z,989.55
2022-09-27T10:23:05.786Z,989.58
2022-09-27T10:24:05.815Z,989.58
2022-09-27T10:25:05.803Z,989.60
2022-09-27T10:26:05.750Z,989.61
2022-09-27T10:27:05.778Z,989.61
2022-09-27T10:28:05.735Z,989.61
2022-09-27T10:29:05.735Z,989.58
2022-09-27T10:30:05.711Z,989.57
2022-09-27T10:31:05.709Z,989.57
2022-09-27T10:32:05.869Z,989.54
2022-09-27T10:33:05.689Z,989.54
2022-09-27T10:34:05.671Z,989.52
2022-09-27T10:35:05.672Z,989.50
2022-09-27T10:36:05.652Z,989.48
2022-09-27T10:37:05.655Z,989.49
2022-09-27T10:38:05.627Z,989.48
2022-09-27T10:39:05.624Z,989.49
2022-09-27T10:40:05.605Z,989.48
2022-09-27T10:41:05.603Z,989.46
2022-09-27T10:42:05.583Z,989.47
2022-09-27T10:43:05.585Z,989.47
2022-09-27T10:44:05.610Z,989.46
2022-09-27T10:45:05.559Z,989.46
2022-09-27T10:46:05.598Z,989.46
2022-09-27T10:47:05.557Z,989.45
2022-09-27T10:48:05.547Z,989.44
2022-09-27T10:49:05.520Z,989.44
2022-09-27T10:50:05.517Z,989.46
2022-09-27T10:51:05.503Z,989.46
2022-09-27T10:52:05.494Z,989.46
2022-09-27T10:53:05.478Z,989.46
2022-09-27T10:54:05.477Z,989.43
2022-09-27T10:55:05.461Z,989.42
2022-09-27T10:56:05.449Z,989.40
2022-09-27T10:57:05.477Z,989.39
2022-09-27T10:58:05.417Z,989.39
2022-09-27T10:59:05.427Z,989.38
2022-09-27T11:00:05.407Z,989.37
2022-09-27T11:01:05.463Z,989.36
2022-09-27T11:02:05.408Z,989.33
2022-09-27T11:03:05.379Z,989.33
2022-09-27T11:04:05.358Z,989.33
2022-09-27T11:05:05.408Z,989.37
2022-09-27T11:06:05.338Z,989.38
2022-09-27T11:07:05.368Z,989.37
2022-09-27T11:08:05.315Z,989.35
2022-09-27T11:09:06.045Z,989.31
2022-09-27T11:10:05.300Z,989.34
2022-09-27T11:11:05.297Z,989.34
2022-09-27T11:12:05.319Z,989.33
2022-09-27T11:13:05.274Z,989.29
2022-09-27T11:14:05.277Z,989.28
2022-09-27T11:15:05.307Z,989.26
2022-09-27T11:16:05.311Z,989.24
2022-09-27T11:17:05.298Z,989.25
2022-09-27T11:18:05.225Z,989.25
2022-09-27T11:19:05.259Z,989.23
2022-09-27T11:20:05.250Z,989.26
2022-09-27T11:21:05.238Z,989.26
2022-09-27T11:22:05.210Z,989.28
2022-09-27T11:23:05.187Z,989.26
2022-09-27T11:24:05.167Z,989.27
2022-09-27T11:25:05.161Z,989.28
2022-09-27T11:26:05.138Z,989.28
2022-09-27T11:27:05.166Z,989.26
2022-09-27T11:28:05.126Z,989.26
2022-09-27T11:29:05.104Z,989.26
2022-09-27T11:30:05.115Z,989.26
2022-09-27T11:31:05.093Z,989.25
2022-09-27T11:32:05.130Z,989.23
2022-09-27T11:33:05.076Z,989.21
2022-09-27T11:34:05.064Z,989.22
2022-09-27T11:35:05.101Z,989.20
2022-09-27T11:36:05.038Z,989.18
2022-09-27T11:37:05.031Z,989.19
2022-09-27T11:38:05.035Z,989.20
2022-09-27T11:39:05.026Z,989.18
2022-09-27T11:40:05.003Z,989.17
2022-09-27T11:41:04.993Z,989.17
2022-09-27T11:42:05.002Z,989.17
2022-09-27T11:43:04.979Z,989.14
2022-09-27T11:44:04.978Z,989.14
2022-09-27T11:45:31.863Z,989.17
2022-09-27T11:46:27.422Z,989.20
2022-09-27T11:47:05.011Z,989.20
2022-09-27T11:48:05.028Z,989.20
2022-09-27T11:49:04.902Z,989.21
2022-09-27T11:50:04.920Z,989.23
2022-09-27T11:51:04.942Z,989.23
2022-09-27T11:52:04.882Z,989.22
2022-09-27T11:53:04.942Z,989.25
2022-09-27T11:54:04.845Z,989.26
2022-09-27T11:55:04.848Z,989.28
2022-09-27T11:56:04.827Z,989.29
2022-09-27T11:57:04.830Z,989.40
2022-09-27T11:58:04.799Z,989.50
2022-09-27T11:59:04.797Z,989.69
2022-09-27T12:00:04.796Z,989.63
2022-09-27T12:01:04.795Z,989.60
2022-09-27T12:02:04.818Z,989.66
2022-09-27T12:03:04.817Z,989.68
2022-09-27T12:04:04.749Z,989.70
2022-09-27T12:05:04.731Z,989.72
2022-09-27T12:06:07.462Z,989.73
2022-09-27T12:07:04.764Z,989.73
2022-09-27T12:08:04.713Z,989.72
2022-09-27T12:09:04.727Z,989.75
2022-09-27T12:10:04.684Z,989.73
2022-09-27T12:11:04.676Z,989.72
2022-09-27T12:12:05.466Z,989.74
2022-09-27T12:13:04.672Z,989.77
2022-09-27T12:14:04.666Z,989.76
2022-09-27T12:15:07.149Z,989.80
2022-09-27T12:16:04.754Z,989.85
2022-09-27T12:17:04.632Z,989.85
2022-09-27T12:18:04.604Z,989.89
2022-09-27T12:19:04.588Z,989.91
2022-09-27T12:20:04.592Z,989.92
2022-09-27T12:21:04.566Z,989.95
2022-09-27T12:22:04.558Z,989.97
2022-09-27T12:23:04.583Z,989.97
2022-09-27T12:24:04.529Z,990.00
2022-09-27T12:25:04.522Z,990.00
2022-09-27T12:26:04.525Z,990.01
2022-09-27T12:27:04.517Z,990.02
2022-09-27T12:28:04.489Z,990.03